Time;durP1;ratioP1;P1;durP2;ratioP2;P2;SDS_P1;SDS_P2;PMS_P1;PMS_P2;Temp;Humidity;BMP_temperature;BMP_pressure;BME280_temperature;BME280_humidity;BME280_pressure;Samples;Min_cycle;Max_cycle;Signal;HPM_P1;HPM_P2
2023/06/03 00:01:22;;;;;;;;;;;24.60;40.50;;;;;;1540903;75;614;-62
2023/06/03 00:03:23;;;;;;;;;;;24.60;40.50;;;;;;1545184;75;740;-62
2023/06/03 00:05:26;;;;;;;;;;;24.60;40.50;;;;;;1551117;75;728;-62
2023/06/03 00:07:28;;;;;;;;;;;24.60;40.50;;;;;;1549170;75;1210;-62
2023/06/03 00:09:30;;;;;;;;;;;24.60;40.50;;;;;;1547648;75;1475;-61
2023/06/03 00:11:35;;;;;;;;;;;24.60;40.50;;;;;;1541925;75;826;-61
2023/06/03 00:13:35;;;;;;;;;;;24.60;40.50;;;;;;1550572;75;1487;-62
2023/06/03 00:15:37;;;;;;;;;;;24.60;40.60;;;;;;1553445;75;670;-62
2023/06/03 00:17:39;;;;;;;;;;;24.60;40.60;;;;;;1548108;75;1942;-62
2023/06/03 00:19:41;;;;;;;;;;;24.60;40.60;;;;;;1549205;75;764;-62
2023/06/03 00:21:49;;;;;;;;;;;24.60;40.60;;;;;;1549743;75;814;-62
2023/06/03 00:23:48;;;;;;;;;;;24.60;40.60;;;;;;1538772;76;1763;-63
2023/06/03 00:25:50;;;;;;;;;;;24.50;40.70;;;;;;1554787;75;712;-62
2023/06/03 00:27:51;;;;;;;;;;;24.60;40.70;;;;;;1553967;75;1185;-62
2023/06/03 00:29:53;;;;;;;;;;;24.60;40.70;;;;;;1544244;75;795;-62
2023/06/03 00:31:55;;;;;;;;;;;24.60;40.70;;;;;;1547891;75;767;-62
2023/06/03 00:33:57;;;;;;;;;;;24.60;40.70;;;;;;1540704;75;675;-62
2023/06/03 00:35:59;;;;;;;;;;;24.50;40.70;;;;;;1542634;75;763;-62
2023/06/03 00:38:01;;;;;;;;;;;24.60;40.70;;;;;;1548640;75;1943;-63
2023/06/03 00:40:03;;;;;;;;;;;24.60;40.70;;;;;;1547029;75;711;-62
2023/06/03 00:42:05;;;;;;;;;;;24.50;40.70;;;;;;1543568;75;1046;-63
2023/06/03 00:44:07;;;;;;;;;;;24.60;40.70;;;;;;1536716;75;729;-62
2023/06/03 00:46:10;;;;;;;;;;;24.60;40.70;;;;;;1541328;75;798;-62
2023/06/03 00:48:12;;;;;;;;;;;24.60;40.70;;;;;;1541844;75;1153;-62
2023/06/03 00:50:14;;;;;;;;;;;24.60;40.70;;;;;;1555354;75;609;-62
2023/06/03 00:52:16;;;;;;;;;;;24.60;40.70;;;;;;1555594;75;1657;-62
2023/06/03 00:54:17;;;;;;;;;;;24.60;40.70;;;;;;1543966;75;674;-62
2023/06/03 00:56:19;;;;;;;;;;;24.60;40.70;;;;;;1551427;75;747;-62
2023/06/03 00:58:21;;;;;;;;;;;24.60;40.70;;;;;;1543234;75;1933;-62
2023/06/03 01:00:23;;;;;;;;;;;24.60;40.70;;;;;;1518849;76;758;-62
2023/06/03 01:02:25;;;;;;;;;;;24.60;40.90;;;;;;1518782;76;673;-62
2023/06/03 01:04:28;;;;;;;;;;;24.60;40.80;;;;;;1519124;76;690;-62
2023/06/03 01:06:34;;;;;;;;;;;24.60;40.80;;;;;;1526810;76;699;-62
2023/06/03 01:08:38;;;;;;;;;;;24.60;40.80;;;;;;1525811;76;1166;-62
2023/06/03 01:10:50;;;;;;;;;;;24.70;40.90;;;;;;1527850;76;1828;-62
2023/06/03 01:12:54;;;;;;;;;;;24.70;40.90;;;;;;1539474;76;733;-62
2023/06/03 01:14:57;;;;;;;;;;;24.60;40.80;;;;;;1527205;76;845;-62
2023/06/03 01:17:01;;;;;;;;;;;24.50;41.20;;;;;;1521086;76;1953;-62
2023/06/03 01:19:03;;;;;;;;;;;24.60;41.00;;;;;;1527345;76;1819;-62
2023/06/03 01:21:05;;;;;;;;;;;24.60;40.90;;;;;;1529386;76;779;-61
2023/06/03 01:23:33;;;;;;;;;;;24.50;40.90;;;;;;1518278;76;816;-61
2023/06/03 01:25:29;;;;;;;;;;;24.60;40.80;;;;;;1523276;76;1690;-61
2023/06/03 01:27:31;;;;;;;;;;;24.60;40.90;;;;;;1530052;76;1182;-62
2023/06/03 01:29:33;;;;;;;;;;;24.60;40.90;;;;;;1519238;76;870;-61
2023/06/03 01:31:35;;;;;;;;;;;24.60;40.90;;;;;;1514305;76;707;-62
2023/06/03 01:33:37;;;;;;;;;;;24.60;40.90;;;;;;1521532;76;1563;-62
2023/06/03 01:35:39;;;;;;;;;;;24.50;40.90;;;;;;1532566;76;751;-62
2023/06/03 01:37:41;;;;;;;;;;;24.60;41.00;;;;;;1519872;76;1949;-62
2023/06/03 01:39:43;;;;;;;;;;;24.60;41.00;;;;;;1523116;76;690;-63
2023/06/03 01:41:45;;;;;;;;;;;24.60;40.90;;;;;;1515550;76;738;-62
2023/06/03 01:43:47;;;;;;;;;;;24.60;40.90;;;;;;1515546;76;801;-62
2023/06/03 01:45:49;;;;;;;;;;;24.60;41.00;;;;;;1527538;76;727;-62
2023/06/03 01:47:51;;;;;;;;;;;24.60;40.90;;;;;;1528712;76;1530;-62
2023/06/03 01:49:53;;;;;;;;;;;24.60;41.00;;;;;;1525743;76;617;-62
2023/06/03 01:51:55;;;;;;;;;;;24.50;40.90;;;;;;1524132;76;685;-62
2023/06/03 01:53:57;;;;;;;;;;;24.50;41.00;;;;;;1524158;76;722;-62
2023/06/03 01:55:59;;;;;;;;;;;24.60;41.00;;;;;;1512873;76;756;-61
2023/06/03 01:58:01;;;;;;;;;;;24.50;41.00;;;;;;1529465;76;1952;-61
2023/06/03 02:00:06;;;;;;;;;;;24.60;41.00;;;;;;1549384;74;1067;-61
2023/06/03 02:02:07;;;;;;;;;;;24.50;41.10;;;;;;1559794;74;1660;-62
2023/06/03 02:04:09;;;;;;;;;;;24.50;41.10;;;;;;1555663;75;786;-60
2023/06/03 02:06:12;;;;;;;;;;;24.50;41.10;;;;;;1555991;75;841;-60
2023/06/03 02:08:13;;;;;;;;;;;24.50;41.10;;;;;;1550956;75;1120;-62
2023/06/03 02:10:15;;;;;;;;;;;24.60;41.30;;;;;;1555400;75;790;-62
2023/06/03 02:12:19;;;;;;;;;;;24.50;41.10;;;;;;1567722;74;751;-62
2023/06/03 02:14:20;;;;;;;;;;;24.60;41.20;;;;;;1562190;75;779;-62
2023/06/03 02:16:22;;;;;;;;;;;24.50;41.10;;;;;;1549138;75;1636;-62
2023/06/03 02:18:24;;;;;;;;;;;24.50;41.10;;;;;;1557713;75;1954;-61
2023/06/03 02:20:26;;;;;;;;;;;24.50;41.10;;;;;;1554823;75;718;-61
2023/06/03 02:22:28;;;;;;;;;;;24.50;41.10;;;;;;1556915;75;783;-61
2023/06/03 02:24:31;;;;;;;;;;;24.50;41.10;;;;;;1556554;75;740;-61
2023/06/03 02:26:34;;;;;;;;;;;24.50;41.10;;;;;;1548885;75;782;-62
2023/06/03 02:28:36;;;;;;;;;;;24.50;41.10;;;;;;1559766;75;1158;-61
2023/06/03 02:30:37;;;;;;;;;;;24.50;41.10;;;;;;1553884;75;1672;-61
2023/06/03 02:32:39;;;;;;;;;;;24.60;41.10;;;;;;1554353;75;719;-62
2023/06/03 02:34:41;;;;;;;;;;;24.50;41.10;;;;;;1558998;75;778;-63
2023/06/03 02:36:43;;;;;;;;;;;24.50;41.20;;;;;;1559627;75;774;-62
2023/06/03 02:38:47;;;;;;;;;;;24.50;41.20;;;;;;1552255;75;1927;-62
2023/06/03 02:40:49;;;;;;;;;;;24.60;41.20;;;;;;1543417;75;768;-63
2023/06/03 02:42:51;;;;;;;;;;;24.50;41.30;;;;;;1557608;75;715;-62
2023/06/03 02:44:53;;;;;;;;;;;24.60;41.20;;;;;;1555381;75;1710;-62
2023/06/03 02:46:55;;;;;;;;;;;24.50;41.30;;;;;;1550772;75;1126;-62
2023/06/03 02:48:57;;;;;;;;;;;24.50;41.20;;;;;;1552406;75;678;-62
2023/06/03 02:50:58;;;;;;;;;;;24.50;41.30;;;;;;1558588;75;801;-64
2023/06/03 02:53:01;;;;;;;;;;;24.50;41.30;;;;;;1538012;75;691;-62
2023/06/03 02:55:03;;;;;;;;;;;24.50;41.30;;;;;;1548866;75;744;-62
2023/06/03 02:57:07;;;;;;;;;;;24.50;41.30;;;;;;1537771;75;1320;-62
2023/06/03 02:59:09;;;;;;;;;;;24.50;41.20;;;;;;1547212;75;1932;-62
2023/06/03 03:01:11;;;;;;;;;;;24.50;41.30;;;;;;1554416;75;720;-62
2023/06/03 03:03:14;;;;;;;;;;;24.50;41.20;;;;;;1558227;75;751;-62
2023/06/03 03:05:18;;;;;;;;;;;24.50;41.20;;;;;;1557378;75;724;-62
2023/06/03 03:07:27;;;;;;;;;;;24.50;41.30;;;;;;1544240;75;1510;-63
2023/06/03 03:09:23;;;;;;;;;;;24.50;41.30;;;;;;1557436;75;1621;-62
2023/06/03 03:11:27;;;;;;;;;;;24.50;41.30;;;;;;1553376;75;1453;-62
2023/06/03 03:13:29;;;;;;;;;;;24.50;41.30;;;;;;1558878;75;791;-62
2023/06/03 03:15:31;;;;;;;;;;;24.50;41.30;;;;;;1554107;75;776;-62
2023/06/03 03:17:32;;;;;;;;;;;24.50;41.30;;;;;;1549095;75;1145;-62
2023/06/03 03:19:35;;;;;;;;;;;24.50;41.30;;;;;;1550161;75;1951;-62
2023/06/03 03:21:37;;;;;;;;;;;24.50;41.30;;;;;;1550501;74;786;-62
2023/06/03 03:23:40;;;;;;;;;;;24.50;41.30;;;;;;1554282;75;729;-63
2023/06/03 03:25:42;;;;;;;;;;;24.50;41.30;;;;;;1546888;75;1537;-62
2023/06/03 03:27:44;;;;;;;;;;;24.50;41.30;;;;;;1563975;75;1109;-62
2023/06/03 03:29:46;;;;;;;;;;;24.50;41.30;;;;;;1561316;75;680;-62
2023/06/03 03:31:48;;;;;;;;;;;24.50;41.30;;;;;;1548293;75;606;-62
2023/06/03 03:33:50;;;;;;;;;;;24.50;41.30;;;;;;1562369;75;678;-62
2023/06/03 03:35:52;;;;;;;;;;;24.50;41.30;;;;;;1559680;75;725;-62
2023/06/03 03:38:02;;;;;;;;;;;24.50;41.30;;;;;;1546197;75;1944;-61
2023/06/03 03:40:05;;;;;;;;;;;24.50;41.30;;;;;;1559475;75;1521;-62
2023/06/03 03:42:07;;;;;;;;;;;24.50;41.30;;;;;;1544977;75;855;-62
2023/06/03 03:44:09;;;;;;;;;;;24.50;41.30;;;;;;1515460;76;792;-63
2023/06/03 03:46:11;;;;;;;;;;;24.50;41.30;;;;;;1556036;75;757;-62
2023/06/03 03:48:13;;;;;;;;;;;24.50;41.40;;;;;;1554795;75;1132;-62
2023/06/03 03:50:20;;;;;;;;;;;24.50;41.40;;;;;;1561804;75;796;-62
2023/06/03 03:52:23;;;;;;;;;;;24.50;41.40;;;;;;1554492;75;719;-62
2023/06/03 03:54:25;;;;;;;;;;;24.50;41.40;;;;;;1560061;76;1522;-62
2023/06/03 03:56:27;;;;;;;;;;;24.50;41.50;;;;;;1555623;75;784;-62
2023/06/03 03:58:42;;;;;;;;;;;24.50;41.50;;;;;;1557439;75;1944;-63
2023/06/03 04:00:44;;;;;;;;;;;24.50;41.50;;;;;;1553421;74;1056;-62
2023/06/03 04:02:46;;;;;;;;;;;24.50;41.50;;;;;;1566132;74;784;-63
2023/06/03 04:04:48;;;;;;;;;;;24.40;41.40;;;;;;1568326;74;716;-62
2023/06/03 04:06:51;;;;;;;;;;;24.50;41.50;;;;;;1564637;74;1180;-62
2023/06/03 04:08:54;;;;;;;;;;;24.50;41.50;;;;;;1563930;74;1361;-62
2023/06/03 04:10:59;;;;;;;;;;;24.50;41.50;;;;;;1556422;74;766;-62
2023/06/03 04:13:01;;;;;;;;;;;24.40;41.60;;;;;;1566596;74;734;-63
2023/06/03 04:15:04;;;;;;;;;;;24.40;41.70;;;;;;1564143;74;789;-64
2023/06/03 04:17:08;;;;;;;;;;;24.40;41.50;;;;;;1571622;74;1094;-63
2023/06/03 04:19:14;;;;;;;;;;;24.40;41.50;;;;;;1552207;74;1961;-64
2023/06/03 04:21:17;;;;;;;;;;;24.50;41.50;;;;;;1555593;74;722;-64
2023/06/03 04:23:20;;;;;;;;;;;24.50;41.40;;;;;;1565271;74;1363;-64
2023/06/03 04:25:23;;;;;;;;;;;24.50;41.30;;;;;;1568312;74;822;-64
2023/06/03 04:27:25;;;;;;;;;;;24.40;41.20;;;;;;1565872;74;1196;-64
2023/06/03 04:29:27;;;;;;;;;;;24.50;41.20;;;;;;1563077;74;758;-63
2023/06/03 04:31:29;;;;;;;;;;;24.50;41.10;;;;;;1556789;74;736;-62
2023/06/03 04:33:30;;;;;;;;;;;24.50;41.10;;;;;;1569028;74;776;-62
2023/06/03 04:35:32;;;;;;;;;;;24.50;41.00;;;;;;1557497;74;1534;-62
2023/06/03 04:37:35;;;;;;;;;;;24.50;40.90;;;;;;1563793;74;1095;-63
2023/06/03 04:39:38;;;;;;;;;;;24.40;40.70;;;;;;1563682;74;1970;-63
2023/06/03 04:41:40;;;;;;;;;;;24.40;40.50;;;;;;1561319;74;1166;-63
2023/06/03 04:43:46;;;;;;;;;;;24.50;40.50;;;;;;1559086;74;1179;-62
2023/06/03 04:45:49;;;;;;;;;;;24.40;40.30;;;;;;1553094;74;1550;-63
2023/06/03 04:47:52;;;;;;;;;;;24.50;40.30;;;;;;1564884;74;1462;-63
2023/06/03 04:49:54;;;;;;;;;;;24.40;40.00;;;;;;1558234;74;1708;-62
2023/06/03 04:51:56;;;;;;;;;;;24.40;39.90;;;;;;1562635;74;1242;-62
2023/06/03 04:53:58;;;;;;;;;;;24.40;39.80;;;;;;1567269;74;1399;-62
2023/06/03 04:56:01;;;;;;;;;;;24.40;39.90;;;;;;1556718;74;1244;-62
2023/06/03 04:58:05;;;;;;;;;;;24.30;39.80;;;;;;1563891;74;1251;-63
2023/06/03 05:00:09;;;;;;;;;;;24.40;39.70;;;;;;1565679;74;1934;-63
2023/06/03 05:02:13;;;;;;;;;;;24.30;39.70;;;;;;1562966;74;1275;-64
2023/06/03 05:04:19;;;;;;;;;;;24.30;39.70;;;;;;1564869;74;1743;-62
2023/06/03 05:06:19;;;;;;;;;;;24.40;39.60;;;;;;1563052;74;1236;-62
2023/06/03 05:08:21;;;;;;;;;;;24.40;39.40;;;;;;1563732;74;1433;-63
2023/06/03 05:10:23;;;;;;;;;;;24.30;39.40;;;;;;1561823;74;1267;-63
2023/06/03 05:12:25;;;;;;;;;;;24.30;39.40;;;;;;1564744;74;1344;-63
2023/06/03 05:14:27;;;;;;;;;;;24.30;39.30;;;;;;1567426;74;1253;-63
2023/06/03 05:16:29;;;;;;;;;;;24.30;39.30;;;;;;1553881;74;1363;-63
2023/06/03 05:18:31;;;;;;;;;;;24.40;39.30;;;;;;1558329;74;1940;-63
2023/06/03 05:20:33;;;;;;;;;;;24.40;39.20;;;;;;1562106;74;1351;-63
2023/06/03 05:22:35;;;;;;;;;;;24.30;39.30;;;;;;1559383;74;1395;-62
2023/06/03 05:24:37;;;;;;;;;;;24.30;39.40;;;;;;1563384;74;1330;-63
2023/06/03 05:26:39;;;;;;;;;;;24.30;39.30;;;;;;1566126;74;1377;-63
2023/06/03 05:28:41;;;;;;;;;;;24.20;39.10;;;;;;1563943;74;1349;-63
2023/06/03 05:30:43;;;;;;;;;;;24.20;39.20;;;;;;1558880;74;1565;-63
2023/06/03 05:32:45;;;;;;;;;;;24.30;39.30;;;;;;1563854;74;1320;-63
2023/06/03 05:34:47;;;;;;;;;;;24.20;39.40;;;;;;1554467;74;1090;-62
2023/06/03 05:36:49;;;;;;;;;;;24.30;39.40;;;;;;1559322;74;1456;-62
2023/06/03 05:38:51;;;;;;;;;;;24.30;39.40;;;;;;1560217;74;1932;-62
2023/06/03 05:40:52;;;;;;;;;;;24.30;39.40;;;;;;1562301;74;1232;-62
2023/06/03 05:42:55;;;;;;;;;;;24.30;39.50;;;;;;1561435;74;1266;-62
2023/06/03 05:44:57;;;;;;;;;;;24.30;39.40;;;;;;1563665;74;1245;-63
2023/06/03 05:46:59;;;;;;;;;;;24.20;39.30;;;;;;1555874;74;1554;-62
2023/06/03 05:49:01;;;;;;;;;;;24.20;39.30;;;;;;1561118;74;1406;-62
2023/06/03 05:51:03;;;;;;;;;;;24.20;39.40;;;;;;1565871;74;1482;-62
2023/06/03 05:53:05;;;;;;;;;;;24.40;39.50;;;;;;1565930;74;1167;-62
2023/06/03 05:55:07;;;;;;;;;;;24.20;39.30;;;;;;1565606;74;1230;-61
2023/06/03 05:57:09;;;;;;;;;;;24.20;39.30;;;;;;1563923;74;1226;-62
2023/06/03 05:59:11;;;;;;;;;;;24.30;39.40;;;;;;1561854;74;1942;-62
2023/06/03 06:01:13;;;;;;;;;;;24.20;39.30;;;;;;1561145;74;1596;-62
2023/06/03 06:03:15;;;;;;;;;;;24.20;39.30;;;;;;1545798;75;1192;-62
2023/06/03 06:05:17;;;;;;;;;;;24.20;39.30;;;;;;1543162;75;1162;-62
2023/06/03 06:07:19;;;;;;;;;;;24.20;39.40;;;;;;1546314;75;1435;-62
2023/06/03 06:09:20;;;;;;;;;;;24.20;39.40;;;;;;1544981;75;1501;-62
2023/06/03 06:11:22;;;;;;;;;;;24.30;39.40;;;;;;1539775;75;1066;-63
2023/06/03 06:13:24;;;;;;;;;;;24.20;39.40;;;;;;1543637;75;1503;-62
2023/06/03 06:15:28;;;;;;;;;;;24.20;39.40;;;;;;1542832;75;1426;-63
2023/06/03 06:17:30;;;;;;;;;;;24.20;39.30;;;;;;1543118;75;1653;-63
2023/06/03 06:19:33;;;;;;;;;;;24.20;39.40;;;;;;1540598;75;1939;-62
2023/06/03 06:21:36;;;;;;;;;;;24.30;39.50;;;;;;1537989;75;1369;-62
2023/06/03 06:23:38;;;;;;;;;;;24.20;39.40;;;;;;1541468;75;1337;-63
2023/06/03 06:25:40;;;;;;;;;;;24.20;39.40;;;;;;1536434;75;1403;-62
2023/06/03 06:27:42;;;;;;;;;;;24.20;39.40;;;;;;1546432;75;1502;-62
2023/06/03 06:29:43;;;;;;;;;;;24.20;39.50;;;;;;1541824;75;1362;-63
2023/06/03 06:31:45;;;;;;;;;;;24.20;39.60;;;;;;1541927;75;1364;-62
2023/06/03 06:33:50;;;;;;;;;;;24.20;39.50;;;;;;1552692;75;1495;-63
2023/06/03 06:35:51;;;;;;;;;;;24.20;39.50;;;;;;1543768;75;1197;-62
2023/06/03 06:37:55;;;;;;;;;;;24.20;39.50;;;;;;1531045;75;1211;-62
2023/06/03 06:39:57;;;;;;;;;;;24.20;39.60;;;;;;1545295;75;1941;-63
2023/06/03 06:42:10;;;;;;;;;;;24.20;39.50;;;;;;1547317;75;1505;-62
2023/06/03 06:44:12;;;;;;;;;;;24.20;39.40;;;;;;1543415;75;1268;-62
2023/06/03 06:46:14;;;;;;;;;;;24.20;39.50;;;;;;1543771;75;1269;-63
2023/06/03 06:48:15;;;;;;;;;;;24.20;39.50;;;;;;1537190;75;1256;-62
2023/06/03 06:50:31;;;;;;;;;;;24.20;39.50;;;;;;1542797;75;1093;-62
2023/06/03 06:52:33;;;;;;;;;;;24.20;39.60;;;;;;1539779;75;1938;-63
2023/06/03 06:54:35;;;;;;;;;;;24.20;39.60;;;;;;1533159;75;1135;-65
2023/06/03 06:56:36;;;;;;;;;;;24.20;39.70;;;;;;1548268;75;1466;-66
2023/06/03 06:58:38;;;;;;;;;;;24.20;39.70;;;;;;1524885;76;1371;-66
2023/06/03 07:00:40;;;;;;;;;;;24.20;39.40;;;;;;1546357;75;1944;-65
2023/06/03 07:02:42;;;;;;;;;;;24.10;39.10;;;;;;1547753;75;1215;-65
2023/06/03 07:04:44;;;;;;;;;;;24.10;39.40;;;;;;1543143;75;1304;-65
2023/06/03 07:06:46;;;;;;;;;;;24.00;39.20;;;;;;1541172;75;1503;-66
2023/06/03 07:08:48;;;;;;;;;;;23.90;39.30;;;;;;1551821;75;1191;-66
2023/06/03 07:10:50;;;;;;;;;;;23.90;39.40;;;;;;1540550;75;1412;-66
2023/06/03 07:12:52;;;;;;;;;;;23.90;38.70;;;;;;1547376;75;1279;-66
2023/06/03 07:14:54;;;;;;;;;;;23.80;39.30;;;;;;1543173;75;1213;-67
2023/06/03 07:16:56;;;;;;;;;;;23.90;38.80;;;;;;1540707;75;1415;-67
2023/06/03 07:18:58;;;;;;;;;;;23.80;38.60;;;;;;1528589;75;1177;-65
2023/06/03 07:21:00;;;;;;;;;;;23.80;38.50;;;;;;1547845;75;1944;-66
2023/06/03 07:23:02;;;;;;;;;;;23.80;38.70;;;;;;1546438;75;1451;-66
2023/06/03 07:25:04;;;;;;;;;;;23.70;39.20;;;;;;1543133;75;1499;-67
2023/06/03 07:27:06;;;;;;;;;;;23.70;39.20;;;;;;1540446;75;1340;-66
2023/06/03 07:29:08;;;;;;;;;;;23.80;39.20;;;;;;1544366;75;1264;-65
2023/06/03 07:31:10;;;;;;;;;;;23.90;38.60;;;;;;1545475;75;1285;-66
2023/06/03 07:33:27;;;;;;;;;;;23.80;38.90;;;;;;1538029;75;1181;-65
2023/06/03 07:35:29;;;;;;;;;;;23.80;38.10;;;;;;1544686;75;1108;-65
2023/06/03 07:37:31;;;;;;;;;;;23.80;38.70;;;;;;1549871;75;1381;-65
2023/06/03 07:39:33;;;;;;;;;;;23.80;38.70;;;;;;1545562;75;1935;-66
2023/06/03 07:41:36;;;;;;;;;;;23.80;38.50;;;;;;1540143;75;1322;-66
2023/06/03 07:43:41;;;;;;;;;;;23.80;38.10;;;;;;1547022;75;1287;-65
2023/06/03 07:45:43;;;;;;;;;;;23.70;38.40;;;;;;1545946;75;1317;-65
2023/06/03 07:47:45;;;;;;;;;;;23.90;39.20;;;;;;1541321;75;1373;-65
2023/06/03 07:49:47;;;;;;;;;;;24.00;38.70;;;;;;1541114;75;1256;-65
2023/06/03 07:51:49;;;;;;;;;;;24.00;38.50;;;;;;1544288;75;1260;-65
2023/06/03 07:53:52;;;;;;;;;;;24.00;39.00;;;;;;1547300;75;1454;-65
2023/06/03 07:55:54;;;;;;;;;;;24.00;39.40;;;;;;1523750;76;1249;-65
2023/06/03 07:57:56;;;;;;;;;;;24.00;39.20;;;;;;1548051;75;1157;-65
2023/06/03 07:59:58;;;;;;;;;;;24.00;39.40;;;;;;1546188;75;1936;-66
2023/06/03 08:01:59;;;;;;;;;;;24.10;39.60;;;;;;1546449;75;1331;-66
2023/06/03 08:04:03;;;;;;;;;;;24.20;39.50;;;;;;1554705;75;1373;-66
2023/06/03 08:06:06;;;;;;;;;;;24.10;39.00;;;;;;1550024;75;1500;-68
2023/06/03 08:08:10;;;;;;;;;;;24.00;39.20;;;;;;1547394;75;1586;-65
2023/06/03 08:10:14;;;;;;;;;;;24.00;39.00;;;;;;1554084;75;1836;-66
2023/06/03 08:12:16;;;;;;;;;;;23.90;39.40;;;;;;1550593;75;1353;-65
2023/06/03 08:14:19;;;;;;;;;;;24.00;39.70;;;;;;1556523;75;1340;-65
2023/06/03 08:16:21;;;;;;;;;;;24.10;39.30;;;;;;1552648;75;1111;-65
2023/06/03 08:18:24;;;;;;;;;;;24.00;39.00;;;;;;1552043;75;1347;-65
2023/06/03 08:20:26;;;;;;;;;;;24.00;38.90;;;;;;1550169;75;1935;-65
2023/06/03 08:22:36;;;;;;;;;;;23.90;39.40;;;;;;1555508;75;1305;-66
2023/06/03 08:24:38;;;;;;;;;;;24.00;39.40;;;;;;1553624;75;1306;-66
2023/06/03 08:26:45;;;;;;;;;;;24.00;39.10;;;;;;1559595;75;1267;-66
2023/06/03 08:28:46;;;;;;;;;;;24.00;39.20;;;;;;1553149;75;1204;-66
2023/06/03 08:30:48;;;;;;;;;;;24.00;38.90;;;;;;1548664;75;1275;-66
2023/06/03 08:32:51;;;;;;;;;;;24.00;39.40;;;;;;1555654;75;1290;-68
2023/06/03 08:34:52;;;;;;;;;;;24.00;39.00;;;;;;1556434;74;1290;-65
2023/06/03 08:36:54;;;;;;;;;;;23.90;39.00;;;;;;1557865;75;1129;-65
2023/06/03 08:38:56;;;;;;;;;;;23.90;39.50;;;;;;1561673;75;1420;-64
2023/06/03 08:40:58;;;;;;;;;;;24.00;39.60;;;;;;1559104;75;1946;-64
2023/06/03 08:43:01;;;;;;;;;;;23.90;39.70;;;;;;1551855;75;1349;-64
2023/06/03 08:45:06;;;;;;;;;;;24.00;39.40;;;;;;1547390;75;1445;-63
2023/06/03 08:47:16;;;;;;;;;;;23.90;39.20;;;;;;1556663;75;1421;-65
2023/06/03 08:49:23;;;;;;;;;;;23.90;39.40;;;;;;1556392;75;1492;-65
2023/06/03 08:51:25;;;;;;;;;;;23.80;39.90;;;;;;1554662;74;1301;-62
2023/06/03 08:53:26;;;;;;;;;;;23.80;39.70;;;;;;1540902;75;1342;-62
2023/06/03 08:55:28;;;;;;;;;;;23.80;40.00;;;;;;1558774;74;1511;-63
2023/06/03 08:57:32;;;;;;;;;;;23.80;39.80;;;;;;1553743;75;1539;-62
2023/06/03 08:59:34;;;;;;;;;;;23.80;39.80;;;;;;1547753;75;1799;-63
2023/06/03 09:01:37;;;;;;;;;;;23.90;39.90;;;;;;1556799;75;1911;-61
2023/06/03 09:03:39;;;;;;;;;;;23.80;39.60;;;;;;1553117;75;1532;-63
2023/06/03 09:05:40;;;;;;;;;;;23.70;40.00;;;;;;1551544;75;1216;-63
2023/06/03 09:07:43;;;;;;;;;;;23.80;40.10;;;;;;1547311;75;1330;-64
2023/06/03 09:09:45;;;;;;;;;;;23.70;39.90;;;;;;1544771;75;1264;-65
2023/06/03 09:11:47;;;;;;;;;;;23.80;40.10;;;;;;1538488;75;1266;-64
2023/06/03 09:13:49;;;;;;;;;;;23.90;40.30;;;;;;1531977;75;1080;-64
2023/06/03 09:15:51;;;;;;;;;;;23.90;40.10;;;;;;1544189;75;1059;-64
2023/06/03 09:17:53;;;;;;;;;;;23.90;40.20;;;;;;1547792;75;1286;-64
2023/06/03 09:19:57;;;;;;;;;;;23.90;40.20;;;;;;1546549;75;1923;-65
2023/06/03 09:21:59;;;;;;;;;;;23.90;40.10;;;;;;1540090;75;1672;-62
2023/06/03 09:24:01;;;;;;;;;;;24.00;40.00;;;;;;1541736;75;1322;-63
2023/06/03 09:26:02;;;;;;;;;;;23.90;39.70;;;;;;1537117;75;1473;-64
2023/06/03 09:28:05;;;;;;;;;;;24.00;40.00;;;;;;1550599;75;1359;-65
2023/06/03 09:30:07;;;;;;;;;;;23.90;40.00;;;;;;1538920;75;1334;-64
2023/06/03 09:32:08;;;;;;;;;;;24.00;39.90;;;;;;1554924;75;1562;-63
2023/06/03 09:34:10;;;;;;;;;;;24.00;40.00;;;;;;1546686;75;1325;-65
2023/06/03 09:36:13;;;;;;;;;;;24.00;40.00;;;;;;1538753;75;1302;-64
2023/06/03 09:38:15;;;;;;;;;;;24.00;39.60;;;;;;1542525;75;1354;-65
2023/06/03 09:40:30;;;;;;;;;;;24.00;39.70;;;;;;1551531;75;1940;-65
2023/06/03 09:42:44;;;;;;;;;;;24.00;39.90;;;;;;1544212;75;1290;-64
2023/06/03 09:44:49;;;;;;;;;;;24.00;39.80;;;;;;1535431;75;1503;-64
2023/06/03 09:46:53;;;;;;;;;;;24.10;40.00;;;;;;1540607;75;1690;-66
2023/06/03 09:48:55;;;;;;;;;;;24.20;39.70;;;;;;1541621;75;1499;-64
2023/06/03 09:50:56;;;;;;;;;;;24.20;39.70;;;;;;1538946;75;1255;-66
2023/06/03 09:52:59;;;;;;;;;;;24.10;39.70;;;;;;1540012;75;1223;-66
2023/06/03 09:55:01;;;;;;;;;;;24.10;39.80;;;;;;1547237;75;1045;-66
2023/06/03 09:57:10;;;;;;;;;;;24.10;39.80;;;;;;1545269;75;1156;-66
2023/06/03 09:59:16;;;;;;;;;;;24.10;39.70;;;;;;1537414;75;1476;-66
2023/06/03 10:01:19;;;;;;;;;;;24.20;39.90;;;;;;1537716;75;1927;-66
2023/06/03 10:03:23;;;;;;;;;;;24.10;39.70;;;;;;1545274;75;1871;-65
2023/06/03 10:05:25;;;;;;;;;;;24.10;39.30;;;;;;1547888;75;1185;-66
2023/06/03 10:07:27;;;;;;;;;;;24.00;39.50;;;;;;1552497;75;1281;-66
2023/06/03 10:09:29;;;;;;;;;;;24.10;39.50;;;;;;1555982;75;1303;-65
2023/06/03 10:11:33;;;;;;;;;;;24.20;39.20;;;;;;1551934;75;1328;-65
2023/06/03 10:13:35;;;;;;;;;;;24.30;39.40;;;;;;1524945;76;1529;-68
2023/06/03 10:15:40;;;;;;;;;;;24.20;39.50;;;;;;1543512;75;1018;-67
2023/06/03 10:17:45;;;;;;;;;;;24.10;40.00;;;;;;1558549;75;1326;-69
2023/06/03 10:19:47;;;;;;;;;;;24.00;40.20;;;;;;1547500;75;1469;-64
2023/06/03 10:21:49;;;;;;;;;;;24.10;40.50;;;;;;1548012;75;1943;-62
2023/06/03 10:23:50;;;;;;;;;;;24.20;40.80;;;;;;1522147;77;1496;-66
2023/06/03 10:25:52;;;;;;;;;;;24.30;41.40;;;;;;1556417;75;1284;-66
2023/06/03 10:27:54;;;;;;;;;;;24.40;40.90;;;;;;1549217;75;1489;-64
2023/06/03 10:29:56;;;;;;;;;;;24.50;41.30;;;;;;1546152;75;1263;-65
2023/06/03 10:31:58;;;;;;;;;;;24.50;41.30;;;;;;1550616;75;1130;-66
2023/06/03 10:34:00;;;;;;;;;;;24.50;41.30;;;;;;1559385;75;1103;-66
2023/06/03 10:36:02;;;;;;;;;;;24.70;41.30;;;;;;1549444;75;1669;-66
2023/06/03 10:38:05;;;;;;;;;;;24.70;41.20;;;;;;1556373;75;1344;-65
2023/06/03 10:40:08;;;;;;;;;;;24.80;41.10;;;;;;1554611;75;1501;-63
2023/06/03 10:42:10;;;;;;;;;;;24.80;41.10;;;;;;1549986;75;1940;-64
2023/06/03 10:44:12;;;;;;;;;;;24.80;41.60;;;;;;1557937;75;1355;-63
2023/06/03 10:46:14;;;;;;;;;;;24.80;41.40;;;;;;1549203;75;1303;-64
2023/06/03 10:48:16;;;;;;;;;;;24.80;41.10;;;;;;1551054;75;1515;-66
2023/06/03 10:50:25;;;;;;;;;;;24.80;41.30;;;;;;1546733;75;1479;-63
2023/06/03 10:52:32;;;;;;;;;;;24.80;41.80;;;;;;1549666;75;1327;-65
2023/06/03 10:54:52;;;;;;;;;;;24.80;41.70;;;;;;1558754;75;2121;-68
2023/06/03 10:56:56;;;;;;;;;;;24.90;41.40;;;;;;1548599;75;1556;-65
2023/06/03 10:59:02;;;;;;;;;;;24.90;41.30;;;;;;1548708;75;1380;-65
2023/06/03 11:01:04;;;;;;;;;;;25.00;40.70;;;;;;1550786;75;1917;-64
2023/06/03 11:03:06;;;;;;;;;;;24.90;40.50;;;;;;1556819;75;1361;-65
2023/06/03 11:05:22;;;;;;;;;;;24.90;40.20;;;;;;1538208;75;1092;-65
2023/06/03 11:07:34;;;;;;;;;;;25.00;40.10;;;;;;1542837;75;1273;-65
2023/06/03 11:09:37;;;;;;;;;;;24.90;40.00;;;;;;1536785;75;1501;-65
2023/06/03 11:11:48;;;;;;;;;;;24.90;40.50;;;;;;1544245;75;1520;-64
2023/06/03 11:13:46;;;;;;;;;;;24.90;40.50;;;;;;1543024;75;1674;-64
2023/06/03 11:15:59;;;;;;;;;;;24.90;40.50;;;;;;1539565;75;1245;-67
2023/06/03 11:18:19;;;;;;;;;;;24.90;40.70;;;;;;1545328;75;1492;-65
2023/06/03 11:20:39;;;;;;;;;;;24.90;41.10;;;;;;1542201;75;1180;-68
2023/06/03 11:22:41;;;;;;;;;;;24.90;41.20;;;;;;1535873;75;1506;-67
2023/06/03 11:24:47;;;;;;;;;;;24.80;41.30;;;;;;1551366;75;1503;-66
2023/06/03 11:26:49;;;;;;;;;;;25.00;41.30;;;;;;1544158;75;1115;-65
2023/06/03 11:28:51;;;;;;;;;;;25.00;40.90;;;;;;1539509;75;1235;-64
2023/06/03 11:30:55;;;;;;;;;;;25.00;40.40;;;;;;1532453;75;1469;-65
2023/06/03 11:33:09;;;;;;;;;;;25.00;40.30;;;;;;1544922;75;1252;-65
2023/06/03 11:35:13;;;;;;;;;;;25.00;40.10;;;;;;1544564;75;1222;-62
2023/06/03 11:37:17;;;;;;;;;;;25.00;40.00;;;;;;1545191;75;1533;-64
2023/06/03 11:39:20;;;;;;;;;;;25.00;40.00;;;;;;1539786;75;1863;-64
2023/06/03 11:41:36;;;;;;;;;;;25.00;39.90;;;;;;1544515;75;2225;-65
2023/06/03 11:43:38;;;;;;;;;;;25.00;39.80;;;;;;1547951;75;1388;-64
2023/06/03 11:45:40;;;;;;;;;;;25.00;39.80;;;;;;1547555;75;1284;-65
2023/06/03 11:47:49;;;;;;;;;;;24.90;39.70;;;;;;1548961;75;1176;-65
2023/06/03 11:49:51;;;;;;;;;;;25.00;39.90;;;;;;1551130;75;759;-65
2023/06/03 11:51:55;;;;;;;;;;;25.00;40.00;;;;;;1550826;75;1513;-64
2023/06/03 11:53:57;;;;;;;;;;;25.00;39.80;;;;;;1533827;75;1550;-64
2023/06/03 11:56:03;;;;;;;;;;;24.90;39.70;;;;;;1550138;75;642;-64
2023/06/03 11:58:11;;;;;;;;;;;24.90;39.70;;;;;;1553375;75;1180;-64
2023/06/03 12:00:13;;;;;;;;;;;25.00;39.70;;;;;;1551707;75;836;-65
2023/06/03 12:02:15;;;;;;;;;;;25.00;39.80;;;;;;1546764;75;1906;-64
2023/06/03 12:04:19;;;;;;;;;;;24.90;39.80;;;;;;1555002;75;1326;-63
2023/06/03 12:06:20;;;;;;;;;;;24.90;39.80;;;;;;1558476;75;1592;-64
2023/06/03 12:08:22;;;;;;;;;;;24.90;39.80;;;;;;1556602;75;1141;-64
2023/06/03 12:10:24;;;;;;;;;;;25.00;39.70;;;;;;1557502;75;844;-65